createdAt,value
2022-08-21T00:02:02.504Z,53.08
2022-08-21T00:04:30.060Z,52.82
2022-08-21T00:06:58.305Z,52.87
2022-08-21T00:09:25.263Z,53.04
2022-08-21T00:11:52.341Z,52.74
2022-08-21T00:14:19.053Z,53.12
2022-08-21T00:16:45.883Z,52.73
2022-08-21T00:19:13.046Z,52.83
2022-08-21T00:21:40.013Z,53.23
2022-08-21T00:24:11.172Z,53.41
2022-08-21T00:26:37.878Z,53.31
2022-08-21T00:29:05.151Z,53.27
2022-08-21T00:31:31.915Z,53.07
2022-08-21T00:34:01.119Z,52.99
2022-08-21T00:36:28.942Z,53.28
2022-08-21T00:38:55.751Z,52.93
2022-08-21T00:41:36.745Z,52.81
2022-08-21T00:44:07.870Z,52.95
2022-08-21T00:46:35.098Z,53.11
2022-08-21T00:49:02.070Z,53.25
2022-08-21T00:51:53.037Z,53.02
2022-08-21T00:54:22.349Z,53.29
2022-08-21T00:56:51.882Z,53.24
2022-08-21T00:59:21.046Z,53.41
2022-08-21T01:01:48.351Z,53.32
2022-08-21T01:04:16.689Z,53.27
2022-08-21T01:06:43.830Z,53.04
2022-08-21T01:09:10.821Z,52.91
2022-08-21T01:11:37.554Z,52.85
2022-08-21T01:14:04.557Z,52.99
2022-08-21T01:16:34.901Z,53.18
2022-08-21T01:19:01.697Z,53.06
2022-08-21T01:21:29.654Z,52.95
2022-08-21T01:23:57.615Z,53.08
2022-08-21T01:26:33.651Z,53.26
2022-08-21T01:29:11.150Z,53.17
2022-08-21T01:31:38.218Z,53.13
2022-08-21T01:34:05.467Z,53.10
2022-08-21T01:36:33.560Z,53.22
2022-08-21T01:39:00.893Z,53.11
2022-08-21T01:41:27.605Z,53.23
2022-08-21T01:43:54.310Z,53.02
2022-08-21T01:46:21.066Z,53.15
2022-08-21T01:48:47.721Z,53.09
2022-08-21T01:51:14.781Z,53.35
2022-08-21T01:53:41.493Z,52.97
2022-08-21T01:56:12.528Z,53.19
2022-08-21T01:58:44.560Z,53.42
2022-08-21T02:01:11.761Z,53.28
2022-08-21T02:03:38.910Z,53.40
2022-08-21T02:06:07.825Z,53.19
2022-08-21T02:08:35.093Z,53.18
2022-08-21T02:11:02.209Z,53.21
2022-08-21T02:13:28.935Z,53.13
2022-08-21T02:15:55.629Z,53.21
2022-08-21T02:18:22.278Z,53.49
2022-08-21T02:20:56.079Z,53.45
2022-08-21T02:23:26.946Z,53.36
2022-08-21T02:26:06.058Z,53.61
2022-08-21T02:28:33.279Z,53.42
2022-08-21T02:31:00.066Z,53.22
2022-08-21T02:33:27.219Z,53.35
2022-08-21T02:35:59.698Z,53.33
2022-08-21T02:38:31.163Z,53.16
2022-08-21T02:40:58.616Z,53.39
2022-08-21T02:43:27.130Z,53.33
2022-08-21T02:45:56.202Z,53.40
2022-08-21T02:48:27.141Z,53.57
2022-08-21T02:51:08.289Z,53.56
2022-08-21T02:53:36.438Z,53.66
2022-08-21T02:56:09.685Z,53.70
2022-08-21T02:58:39.638Z,53.36
2022-08-21T03:01:10.694Z,53.43
2022-08-21T03:03:40.218Z,53.42
2022-08-21T03:06:09.136Z,53.58
2022-08-21T03:08:37.221Z,53.45
2022-08-21T03:11:04.335Z,53.35
2022-08-21T03:13:33.423Z,53.28
2022-08-21T03:16:00.289Z,53.43
2022-08-21T03:18:27.228Z,53.78
2022-08-21T03:20:53.866Z,53.80
2022-08-21T03:23:20.715Z,53.59
2022-08-21T03:25:49.343Z,53.75
2022-08-21T03:28:19.704Z,53.39
2022-08-21T03:30:49.053Z,53.49
2022-08-21T03:33:16.023Z,53.58
2022-08-21T03:35:45.275Z,53.56
2022-08-21T03:38:13.989Z,53.75
2022-08-21T03:40:42.658Z,53.63
2022-08-21T03:43:10.612Z,53.20
2022-08-21T03:45:38.923Z,53.53
2022-08-21T03:48:06.767Z,53.32
2022-08-21T03:50:41.175Z,53.31
2022-08-21T03:53:17.242Z,53.69
2022-08-21T03:55:50.108Z,53.58
2022-08-21T03:58:18.739Z,53.55
2022-08-21T04:00:51.786Z,53.36
2022-08-21T04:03:19.529Z,53.25
2022-08-21T04:05:46.953Z,53.24
2022-08-21T04:08:14.968Z,53.16
2022-08-21T04:10:45.768Z,53.26
2022-08-21T04:13:12.595Z,53.30
2022-08-21T04:15:39.405Z,53.47
2022-08-21T04:18:06.662Z,53.47
2022-08-21T04:20:34.158Z,53.27
2022-08-21T04:23:01.207Z,53.39
2022-08-21T04:25:28.279Z,53.27
2022-08-21T04:27:55.176Z,53.29
2022-08-21T04:30:28.795Z,53.39
2022-08-21T04:32:56.719Z,53.62
2022-08-21T04:35:24.269Z,53.14
2022-08-21T04:37:51.412Z,53.58
2022-08-21T04:40:21.167Z,53.49
2022-08-21T04:42:58.236Z,53.43
2022-08-21T04:45:34.020Z,53.45
2022-08-21T04:48:04.238Z,53.16
2022-08-21T04:50:41.065Z,53.68
2022-08-21T04:53:13.381Z,53.27
2022-08-21T04:55:41.100Z,53.55
2022-08-21T04:58:09.954Z,53.50
2022-08-21T05:00:37.000Z,53.29
2022-08-21T05:03:05.243Z,53.02
2022-08-21T05:05:31.970Z,53.31
2022-08-21T05:08:00.571Z,53.44
2022-08-21T05:10:27.646Z,53.68
2022-08-21T05:12:55.169Z,53.84
2022-08-21T05:15:22.309Z,53.58
2022-08-21T05:17:53.766Z,53.56
2022-08-21T05:20:27.908Z,53.55
2022-08-21T05:22:54.727Z,53.36
2022-08-21T05:25:22.342Z,53.74
2022-08-21T05:27:52.148Z,53.60
2022-08-21T05:30:20.166Z,53.51
2022-08-21T05:32:48.301Z,53.88
2022-08-21T05:35:15.283Z,53.95
2022-08-21T05:37:41.994Z,53.79
2022-08-21T05:40:22.741Z,53.89
2022-08-21T05:42:55.562Z,53.81
2022-08-21T05:45:26.398Z,53.53
2022-08-21T05:48:26.248Z,53.54
2022-08-21T05:50:53.534Z,53.69
2022-08-21T05:53:21.802Z,53.39
2022-08-21T05:55:48.787Z,53.63
2022-08-21T05:58:17.715Z,53.52
2022-08-21T06:00:45.259Z,53.44
2022-08-21T06:03:14.332Z,53.30
2022-08-21T06:05:41.030Z,53.68
2022-08-21T06:08:07.701Z,53.77
2022-08-21T06:10:34.864Z,53.57
2022-08-21T06:13:01.625Z,53.71
2022-08-21T06:15:28.435Z,53.31
2022-08-21T06:17:55.385Z,53.29
2022-08-21T06:20:22.894Z,53.36
2022-08-21T06:22:50.072Z,53.52
2022-08-21T06:25:16.916Z,53.27
2022-08-21T06:27:43.595Z,53.08
2022-08-21T06:30:10.812Z,53.37
2022-08-21T06:32:37.830Z,53.00
2022-08-21T06:35:06.975Z,53.44
2022-08-21T06:37:33.976Z,53.06
2022-08-21T06:40:01.152Z,53.28
2022-08-21T06:42:29.090Z,52.97
2022-08-21T06:44:56.127Z,53.47
2022-08-21T06:47:22.981Z,53.10
2022-08-21T06:49:49.805Z,53.70
2022-08-21T06:52:16.882Z,53.42
2022-08-21T06:54:43.858Z,53.22
2022-08-21T06:57:10.556Z,53.02
2022-08-21T06:59:37.363Z,53.36
2022-08-21T07:02:04.721Z,53.16
2022-08-21T07:04:31.774Z,53.40
2022-08-21T07:06:58.471Z,53.21
2022-08-21T07:09:25.211Z,53.45
2022-08-21T07:11:55.005Z,53.15
2022-08-21T07:14:22.295Z,53.20
2022-08-21T07:16:50.203Z,53.08
2022-08-21T07:19:16.943Z,53.45
2022-08-21T07:21:43.727Z,53.11
2022-08-21T07:24:10.617Z,53.23
2022-08-21T07:26:37.681Z,53.31
2022-08-21T07:29:04.989Z,53.39
2022-08-21T07:31:32.579Z,53.02
2022-08-21T07:33:59.422Z,53.57
2022-08-21T07:36:26.221Z,53.72
2022-08-21T07:38:53.147Z,53.72
2022-08-21T07:41:31.214Z,53.69
2022-08-21T07:44:00.977Z,53.32
2022-08-21T07:46:29.054Z,53.80
2022-08-21T07:48:55.906Z,53.74
2022-08-21T07:51:26.271Z,53.73
2022-08-21T07:53:53.727Z,53.44
2022-08-21T07:56:21.153Z,53.52
2022-08-21T07:58:48.367Z,53.70
2022-08-21T08:01:15.372Z,53.41
2022-08-21T08:03:42.141Z,53.77
2022-08-21T08:06:13.137Z,53.52
2022-08-21T08:08:41.767Z,53.91
2022-08-21T08:11:11.754Z,53.72
2022-08-21T08:13:43.584Z,54.05
2022-08-21T08:16:10.796Z,53.98
2022-08-21T08:18:37.675Z,53.91
2022-08-21T08:21:05.915Z,53.46
2022-08-21T08:23:33.083Z,53.49
2022-08-21T08:26:00.439Z,53.64
2022-08-21T08:28:28.402Z,53.58
2022-08-21T08:30:55.546Z,53.47
2022-08-21T08:33:22.671Z,53.33
2022-08-21T08:35:51.259Z,53.03
2022-08-21T08:38:21.534Z,52.95
2022-08-21T08:41:09.540Z,52.86
2022-08-21T08:43:37.067Z,52.99
2022-08-21T08:46:07.612Z,52.89
2022-08-21T08:48:41.719Z,52.60
2022-08-21T08:51:16.725Z,52.07
2022-08-21T08:53:50.304Z,51.62
2022-08-21T08:56:20.287Z,50.62
2022-08-21T08:58:48.495Z,50.04
2022-08-21T09:01:20.212Z,49.47
2022-08-21T09:03:52.895Z,48.17
2022-08-21T09:06:43.343Z,48.35
2022-08-21T09:09:20.506Z,47.32
2022-08-21T09:12:14.446Z,46.70
2022-08-21T09:15:03.753Z,46.25
2022-08-21T09:17:47.104Z,45.71
2022-08-21T09:20:30.113Z,44.58
2022-08-21T09:23:26.906Z,44.56
2022-08-21T09:26:21.358Z,44.62
2022-08-21T09:28:57.511Z,44.14
2022-08-21T09:31:32.241Z,43.76
2022-08-21T09:34:10.178Z,43.97
2022-08-21T09:36:38.551Z,43.59
2022-08-21T09:39:06.320Z,43.06
2022-08-21T09:41:36.464Z,43.24
2022-08-21T09:44:04.012Z,42.63
2022-08-21T09:46:31.054Z,41.99
2022-08-21T09:49:00.708Z,41.80
2022-08-21T09:51:35.239Z,41.98
2022-08-21T09:54:08.411Z,41.69
2022-08-21T09:57:10.241Z,41.44
2022-08-21T09:59:38.450Z,41.41
2022-08-21T10:02:24.142Z,41.29
2022-08-21T10:04:53.502Z,40.94
2022-08-21T10:07:23.116Z,40.72
2022-08-21T10:10:03.045Z,40.81
2022-08-21T10:12:52.878Z,40.68
2022-08-21T10:15:31.022Z,40.78
2022-08-21T10:18:05.406Z,40.06
2022-08-21T10:20:54.161Z,40.19
2022-08-21T10:23:42.822Z,39.89
2022-08-21T10:26:26.370Z,40.21
2022-08-21T10:29:04.701Z,40.01
2022-08-21T10:31:39.023Z,39.79
2022-08-21T10:34:11.787Z,39.47
2022-08-21T10:36:53.746Z,38.74
2022-08-21T10:39:36.625Z,38.29
2022-08-21T10:42:28.513Z,37.84
2022-08-21T10:45:16.678Z,37.38
2022-08-21T10:47:52.171Z,36.62
2022-08-21T10:50:33.837Z,36.56
2022-08-21T10:53:13.038Z,36.63
2022-08-21T10:56:14.331Z,36.63
2022-08-21T10:58:47.398Z,36.91
2022-08-21T11:01:25.960Z,36.59
2022-08-21T11:04:00.754Z,36.75
2022-08-21T11:06:31.151Z,36.82
2022-08-21T11:09:13.587Z,36.16
2022-08-21T11:11:59.117Z,35.89
2022-08-21T11:14:40.873Z,35.62
2022-08-21T11:17:22.137Z,35.24
2022-08-21T11:20:06.374Z,35.16
2022-08-21T11:22:38.351Z,35.27
2022-08-21T11:25:24.753Z,35.28
2022-08-21T11:28:05.033Z,35.20
2022-08-21T11:31:01.590Z,35.72
2022-08-21T11:33:39.972Z,35.68
2022-08-21T11:36:28.743Z,35.59
2022-08-21T11:39:21.968Z,36.02
2022-08-21T11:41:59.285Z,35.40
2022-08-21T11:44:42.077Z,35.38
2022-08-21T11:47:30.455Z,35.61
2022-08-21T11:50:34.259Z,35.60
2022-08-21T11:53:14.819Z,34.23
2022-08-21T11:56:01.388Z,34.31
2022-08-21T11:58:34.653Z,34.34
2022-08-21T12:01:06.360Z,33.25
2022-08-21T12:03:42.864Z,33.27
2022-08-21T12:06:24.216Z,33.41
2022-08-21T12:09:10.131Z,33.21
2022-08-21T12:12:06.259Z,33.25
2022-08-21T12:14:48.769Z,33.60
2022-08-21T12:17:36.434Z,33.80
2022-08-21T12:20:21.907Z,33.85
2022-08-21T12:22:55.883Z,33.63
2022-08-21T12:25:23.421Z,33.59
2022-08-21T12:27:55.787Z,33.41
2022-08-21T12:30:28.580Z,33.19
2022-08-21T12:33:01.502Z,33.29
2022-08-21T12:35:39.179Z,33.28
2022-08-21T12:38:47.209Z,32.84
2022-08-21T12:41:20.782Z,32.58
2022-08-21T12:44:00.910Z,32.36
2022-08-21T12:46:56.747Z,32.15
2022-08-21T12:49:49.257Z,32.68
2022-08-21T12:52:26.505Z,32.17
2022-08-21T12:54:53.310Z,32.46
2022-08-21T12:57:26.472Z,32.67
2022-08-21T12:59:58.179Z,32.08
2022-08-21T13:02:29.592Z,32.59
2022-08-21T13:04:57.522Z,32.27
2022-08-21T13:07:30.494Z,32.65
2022-08-21T13:10:00.495Z,32.23
2022-08-21T13:12:29.558Z,31.96
2022-08-21T13:15:02.503Z,32.31
2022-08-21T13:17:32.879Z,32.22
2022-08-21T13:20:06.362Z,32.29
2022-08-21T13:22:35.148Z,32.03
2022-08-21T13:25:06.492Z,31.82
2022-08-21T13:27:36.927Z,31.76
2022-08-21T13:30:12.270Z,31.85
2022-08-21T13:32:45.274Z,31.56
2022-08-21T13:35:15.238Z,30.65
2022-08-21T13:37:42.666Z,30.85
2022-08-21T13:40:12.487Z,30.88
2022-08-21T13:42:40.391Z,30.78
2022-08-21T13:45:14.354Z,30.28
2022-08-21T13:47:41.430Z,30.63
2022-08-21T13:50:08.690Z,30.91
2022-08-21T13:52:47.778Z,30.29
2022-08-21T13:55:17.673Z,30.76
2022-08-21T13:57:44.438Z,30.75
2022-08-21T14:00:20.870Z,30.35
2022-08-21T14:02:51.802Z,30.52
2022-08-21T14:05:28.049Z,30.57
2022-08-21T14:08:13.912Z,30.17
2022-08-21T14:10:53.868Z,29.99
2022-08-21T14:13:45.412Z,29.65
2022-08-21T14:16:21.509Z,29.65
2022-08-21T14:18:52.425Z,29.58
2022-08-21T14:21:33.774Z,29.09
2022-08-21T14:24:13.522Z,29.40
2022-08-21T14:26:48.318Z,29.41
2022-08-21T14:29:17.204Z,29.64
2022-08-21T14:31:45.207Z,29.54
2022-08-21T14:34:19.049Z,29.25
2022-08-21T14:36:48.616Z,28.63
2022-08-21T14:39:15.363Z,28.81
2022-08-21T14:41:43.567Z,29.12
2022-08-21T14:44:10.695Z,29.08
2022-08-21T14:46:43.973Z,29.01
2022-08-21T14:49:22.802Z,29.53
2022-08-21T14:51:54.685Z,29.04
2022-08-21T14:54:22.419Z,28.91
2022-08-21T14:56:56.050Z,29.08
2022-08-21T14:59:22.828Z,28.69
2022-08-21T15:01:50.606Z,28.56
2022-08-21T15:04:17.482Z,28.85
2022-08-21T15:06:44.730Z,29.07
2022-08-21T15:09:11.427Z,28.58
2022-08-21T15:11:41.980Z,28.40
2022-08-21T15:14:12.571Z,28.17
2022-08-21T15:16:39.322Z,28.10
2022-08-21T15:19:05.990Z,27.91
2022-08-21T15:21:37.109Z,27.50
2022-08-21T15:24:04.666Z,27.65
2022-08-21T15:26:31.686Z,27.68
2022-08-21T15:29:00.513Z,27.66
2022-08-21T15:31:28.506Z,27.58
2022-08-21T15:33:56.246Z,27.26
2022-08-21T15:36:23.233Z,27.23
2022-08-21T15:38:50.563Z,26.55
2022-08-21T15:41:18.346Z,25.07
2022-08-21T15:43:52.673Z,23.36
2022-08-21T15:46:20.635Z,22.30
2022-08-21T15:48:47.531Z,23.08
2022-08-21T15:51:20.084Z,24.15
2022-08-21T15:53:56.845Z,24.91
2022-08-21T15:56:25.730Z,25.30
2022-08-21T15:58:54.186Z,25.74
2022-08-21T16:01:22.764Z,26.06
2022-08-21T16:03:52.040Z,25.99
2022-08-21T16:06:18.891Z,25.71
2022-08-21T16:09:05.501Z,25.97
2022-08-21T16:11:32.362Z,25.12
2022-08-21T16:13:59.280Z,24.71
2022-08-21T16:16:26.018Z,24.52
2022-08-21T16:18:53.680Z,23.86
2022-08-21T16:21:21.702Z,23.92
2022-08-21T16:23:49.700Z,24.95
2022-08-21T16:26:18.374Z,26.09
2022-08-21T16:28:46.497Z,26.49
2022-08-21T16:31:15.375Z,27.58
2022-08-21T16:33:46.125Z,28.30
2022-08-21T16:36:13.583Z,28.93
2022-08-21T16:38:41.871Z,29.68
2022-08-21T16:41:12.002Z,29.98
2022-08-21T16:43:41.105Z,30.25
2022-08-21T16:46:09.233Z,30.41
2022-08-21T16:48:36.087Z,27.50
2022-08-21T16:51:05.055Z,24.68
2022-08-21T16:53:32.062Z,22.79
2022-08-21T16:55:59.050Z,21.21
2022-08-21T16:58:31.826Z,20.52
2022-08-21T17:00:59.877Z,21.49
2022-08-21T17:03:30.763Z,23.34
2022-08-21T17:05:57.570Z,25.11
2022-08-21T17:08:24.353Z,26.44
2022-08-21T17:10:51.461Z,26.60
2022-08-21T17:13:18.318Z,26.91
2022-08-21T17:15:45.990Z,27.93
2022-08-21T17:18:16.341Z,28.27
2022-08-21T17:20:43.086Z,29.38
2022-08-21T17:23:10.152Z,30.24
2022-08-21T17:25:40.048Z,30.55
2022-08-21T17:28:07.812Z,31.09
2022-08-21T17:30:34.561Z,31.98
2022-08-21T17:33:01.575Z,32.26
2022-08-21T17:35:28.358Z,32.54
2022-08-21T17:37:55.170Z,33.17
2022-08-21T17:40:23.737Z,33.36
2022-08-21T17:42:50.618Z,34.30
2022-08-21T17:45:19.342Z,34.54
2022-08-21T17:47:46.322Z,34.97
2022-08-21T17:50:14.958Z,35.33
2022-08-21T17:52:49.200Z,35.74
2022-08-21T17:55:17.322Z,36.08
2022-08-21T17:57:45.743Z,36.21
2022-08-21T18:00:15.746Z,36.58
2022-08-21T18:02:43.714Z,36.88
2022-08-21T18:05:12.254Z,37.51
2022-08-21T18:07:39.802Z,38.17
2022-08-21T18:10:11.337Z,38.49
2022-08-21T18:12:40.738Z,38.83
2022-08-21T18:15:08.272Z,39.12
2022-08-21T18:17:35.740Z,39.13
2022-08-21T18:20:05.022Z,39.67
2022-08-21T18:22:31.761Z,39.86
2022-08-21T18:24:58.542Z,40.50
2022-08-21T18:27:29.494Z,40.44
2022-08-21T18:30:00.256Z,40.78
2022-08-21T18:32:31.709Z,40.94
2022-08-21T18:35:00.987Z,41.13
2022-08-21T18:37:27.866Z,41.48
2022-08-21T18:39:54.697Z,41.68
2022-08-21T18:42:28.592Z,41.67
2022-08-21T18:44:59.681Z,41.95
2022-08-21T18:47:37.251Z,42.46
2022-08-21T18:50:10.211Z,42.79
2022-08-21T18:52:38.846Z,42.49
2022-08-21T18:55:16.601Z,42.58
2022-08-21T18:57:46.513Z,42.64
2022-08-21T19:00:19.296Z,42.84
2022-08-21T19:02:46.490Z,42.69
2022-08-21T19:05:14.788Z,42.66
2022-08-21T19:07:42.020Z,43.21
2022-08-21T19:10:27.964Z,43.36
2022-08-21T19:13:02.006Z,43.24
2022-08-21T19:15:30.498Z,43.28
2022-08-21T19:17:58.411Z,43.34
2022-08-21T19:20:36.579Z,43.67
2022-08-21T19:23:06.263Z,43.69
2022-08-21T19:25:35.610Z,43.93
2022-08-21T19:28:10.937Z,43.82
2022-08-21T19:30:40.142Z,44.03
2022-08-21T19:33:07.659Z,44.51
2022-08-21T19:35:37.175Z,44.25
2022-08-21T19:38:03.894Z,44.59
2022-08-21T19:40:31.762Z,44.46
2022-08-21T19:42:58.745Z,44.63
2022-08-21T19:45:28.778Z,44.54
2022-08-21T19:47:55.906Z,44.57
2022-08-21T19:50:25.846Z,44.92
2022-08-21T19:52:52.554Z,44.63
2022-08-21T19:55:20.402Z,44.76
2022-08-21T19:57:50.434Z,44.61
2022-08-21T20:00:18.306Z,44.83
2022-08-21T20:02:47.844Z,45.26
2022-08-21T20:05:15.949Z,45.04
2022-08-21T20:07:45.521Z,45.13
2022-08-21T20:10:13.228Z,45.20
2022-08-21T20:12:41.120Z,45.57
2022-08-21T20:15:09.010Z,45.45
2022-08-21T20:17:36.225Z,45.59
2022-08-21T20:20:04.896Z,45.74
2022-08-21T20:22:31.633Z,45.90
2022-08-21T20:24:59.052Z,45.81
2022-08-21T20:27:27.530Z,45.98
2022-08-21T20:29:54.898Z,45.90
2022-08-21T20:32:22.479Z,46.31
2022-08-21T20:34:52.149Z,46.11
2022-08-21T20:40:10.902Z,46.11
2022-08-21T20:42:47.395Z,46.55
2022-08-21T20:45:24.223Z,46.72
2022-08-21T20:48:11.670Z,46.42
2022-08-21T20:50:42.425Z,46.57
2022-08-21T20:53:43.111Z,46.72
2022-08-21T20:56:19.491Z,46.81
2022-08-21T20:59:19.101Z,46.88
2022-08-21T21:01:47.154Z,46.62
2022-08-21T21:04:32.970Z,46.61
2022-08-21T21:07:01.351Z,46.92
2022-08-21T21:09:43.762Z,46.86
2022-08-21T21:12:18.416Z,47.16
2022-08-21T21:14:58.653Z,47.15
2022-08-21T21:17:46.281Z,46.95
2022-08-21T21:20:35.086Z,47.14
2022-08-21T21:23:15.238Z,46.92
2022-08-21T21:25:58.386Z,47.21
2022-08-21T21:28:49.211Z,46.91
2022-08-21T21:31:18.142Z,47.43
2022-08-21T21:33:46.319Z,47.43
2022-08-21T21:36:13.074Z,47.28
2022-08-21T21:38:51.451Z,47.64
2022-08-21T21:41:25.050Z,47.51
2022-08-21T21:44:10.681Z,47.54
2022-08-21T21:47:02.766Z,47.84
2022-08-21T21:49:30.431Z,47.58
2022-08-21T21:52:18.198Z,47.71
2022-08-21T21:54:54.064Z,48.02
2022-08-21T21:57:55.873Z,47.84
2022-08-21T22:00:27.775Z,47.54
2022-08-21T22:03:07.928Z,48.09
2022-08-21T22:05:50.645Z,47.78
2022-08-21T22:08:17.329Z,48.18
2022-08-21T22:10:48.979Z,48.22
2022-08-21T22:13:26.617Z,48.34
2022-08-21T22:15:55.072Z,48.14
2022-08-21T22:18:26.185Z,48.70
2022-08-21T22:20:58.250Z,48.52
2022-08-21T22:23:28.598Z,48.69
2022-08-21T22:26:02.214Z,48.49
2022-08-21T22:28:33.266Z,48.64
2022-08-21T22:31:30.917Z,48.82
2022-08-21T22:34:05.200Z,48.63
2022-08-21T22:36:37.403Z,48.91
2022-08-21T22:39:08.570Z,49.17
2022-08-21T22:41:42.691Z,48.75
2022-08-21T22:44:27.228Z,49.22
2022-08-21T22:46:57.122Z,49.35
2022-08-21T22:49:31.824Z,49.11
2022-08-21T22:52:25.136Z,49.05
2022-08-21T22:54:58.257Z,49.02
2022-08-21T22:57:26.780Z,49.34
2022-08-21T23:00:17.135Z,49.32
2022-08-21T23:02:58.052Z,49.31
2022-08-21T23:05:34.341Z,49.10
2022-08-21T23:08:24.289Z,49.47
2022-08-21T23:10:58.079Z,49.13
2022-08-21T23:13:25.067Z,49.15
2022-08-21T23:16:26.781Z,49.40
2022-08-21T23:19:51.682Z,49.84
2022-08-21T23:22:21.026Z,49.67
2022-08-21T23:25:15.125Z,49.56
2022-08-21T23:31:01.935Z,49.91
2022-08-21T23:33:47.405Z,50.06
2022-08-21T23:36:42.165Z,49.95
2022-08-21T23:39:24.106Z,49.96
2022-08-21T23:42:00.649Z,49.89
2022-08-21T23:44:46.965Z,50.21
2022-08-21T23:47:33.468Z,50.10
2022-08-21T23:50:13.754Z,49.96
2022-08-21T23:52:58.704Z,50.13
2022-08-21T23:55:37.693Z,50.35
2022-08-21T23:58:04.702Z,50.12
